Time;durP1;ratioP1;P1;durP2;ratioP2;P2;SDS_P1;SDS_P2;PMS_P1;PMS_P2;Temp;Humidity;BMP_temperature;BMP_pressure;BME280_temperature;BME280_humidity;BME280_pressure;Samples;Min_cycle;Max_cycle;Signal;HPM_P1;HPM_P2
2022/06/07 00:00:38;;;;;;;7.40;3.20;;;;;;;-144.07;100.00;58028.97;4822776;29;20375;-77
2022/06/07 00:03:04;;;;;;;7.90;3.47;;;;;;;-144.07;100.00;58028.97;4842926;29;20136;-76
2022/06/07 00:05:29;;;;;;;4.88;2.90;;;;;;;-144.07;100.00;58028.97;4842896;29;20045;-77
2022/06/07 00:07:55;;;;;;;5.40;3.17;;;;;;;-144.07;100.00;58028.97;4844651;29;20133;-77
2022/06/07 00:10:22;;;;;;;8.93;3.83;;;;;;;-144.07;100.00;58028.97;4828164;29;20042;-77
2022/06/07 00:12:47;;;;;;;5.50;2.65;;;;;;;-144.07;100.00;58028.97;4832194;29;20130;-77
2022/06/07 00:15:13;;;;;;;7.45;3.17;;;;;;;-144.07;100.00;58028.97;4835190;29;20128;-77
2022/06/07 00:17:39;;;;;;;8.13;2.90;;;;;;;-144.07;100.00;58028.97;4821587;29;20050;-77
2022/06/07 00:20:05;;;;;;;7.53;2.97;;;;;;;-144.07;100.00;58028.97;4844268;29;20078;-78
2022/06/07 00:22:31;;;;;;;11.25;3.40;;;;;;;-144.07;100.00;58028.97;4843199;29;20537;-76
2022/06/07 00:24:57;;;;;;;10.50;2.90;;;;;;;-144.07;100.00;58028.97;4819904;29;20106;-76
2022/06/07 00:27:24;;;;;;;6.35;3.42;;;;;;;-144.07;100.00;58028.97;4827593;29;20038;-77
2022/06/07 00:29:49;;;;;;;5.07;3.22;;;;;;;-144.07;100.00;58028.97;4844800;29;20046;-77
2022/06/07 00:32:16;;;;;;;5.63;3.10;;;;;;;-144.07;100.00;58028.97;4843187;29;20574;-76
2022/06/07 00:34:42;;;;;;;9.93;3.55;;;;;;;-144.07;100.00;58028.97;4858459;29;20085;-78
2022/06/07 00:37:07;;;;;;;9.57;3.33;;;;;;;-144.07;100.00;58028.97;4825185;29;20069;-78
2022/06/07 00:39:33;;;;;;;6.45;2.90;;;;;;;-144.07;100.00;58028.97;4842727;29;20042;-76
2022/06/07 00:41:59;;;;;;;7.70;3.25;;;;;;;-144.07;100.00;58028.97;4813244;29;20090;-77
2022/06/07 00:44:25;;;;;;;5.38;3.30;;;;;;;-144.07;100.00;58028.97;4842624;29;20052;-78
2022/06/07 00:47:08;;;;;;;9.48;3.33;;;;;;;-144.07;100.00;58028.97;4843920;29;20090;-76
2022/06/07 00:49:53;;;;;;;4.57;2.88;;;;;;;-144.07;100.00;58028.97;4843956;29;20056;-76
2022/06/07 00:52:20;;;;;;;6.78;3.05;;;;;;;-144.07;100.00;58028.97;4858530;29;20046;-77
2022/06/07 00:54:47;;;;;;;11.07;3.30;;;;;;;-144.07;100.00;58028.97;4827378;29;20037;-77
2022/06/07 00:57:33;;;;;;;7.38;3.45;;;;;;;-144.07;100.00;58028.97;4836074;29;20057;-78
2022/06/07 01:00:04;;;;;;;9.93;3.55;;;;;;;-144.07;100.00;58028.97;4842981;29;20045;-77
2022/06/07 01:02:31;;;;;;;6.30;3.00;;;;;;;-144.07;100.00;58028.97;4842721;29;20046;-76
2022/06/07 01:04:58;;;;;;;7.40;3.20;;;;;;;-144.07;100.00;58028.97;4843237;29;20054;-76
2022/06/07 01:12:58;;;;;;;7.90;3.55;;;;;;;-144.07;100.00;58028.97;4842405;29;20133;-75
2022/06/07 01:15:26;;;;;;;7.30;3.55;;;;;;;-144.07;100.00;58028.97;4837753;29;20034;-77
2022/06/07 01:17:54;;;;;;;10.00;4.00;;;;;;;-144.07;100.00;58028.97;4837688;29;20082;-76
2022/06/07 01:20:20;;;;;;;14.95;3.90;;;;;;;-144.07;100.00;58028.97;4854286;29;20093;-77
2022/06/07 01:22:46;;;;;;;8.10;3.35;;;;;;;-144.07;100.00;58028.97;4856964;29;20046;-76
2022/06/07 01:25:11;;;;;;;6.65;3.42;;;;;;;-144.07;100.00;58028.97;4844226;29;20066;-77
2022/06/07 01:27:37;;;;;;;10.85;3.45;;;;;;;-144.07;100.00;58028.97;4841572;29;20050;-76
2022/06/07 01:30:05;;;;;;;8.93;3.80;;;;;;;-144.07;100.00;58028.97;4841642;29;20062;-76
2022/06/07 01:32:31;;;;;;;7.30;3.85;;;;;;;-144.07;100.00;58028.97;4844630;29;20069;-77
2022/06/07 01:34:57;;;;;;;8.15;3.60;;;;;;;-144.07;100.00;58028.97;4841963;29;20494;-77
2022/06/07 01:37:23;;;;;;;8.55;3.75;;;;;;;-144.07;100.00;58028.97;4841468;29;20128;-77
2022/06/07 01:42:33;;;;;;;7.88;3.92;;;;;;;-144.07;100.00;58028.97;4841158;29;20417;-77
2022/06/07 01:44:59;;;;;;;9.48;3.65;;;;;;;-144.07;100.00;58028.97;4841654;29;20105;-76
2022/06/07 01:47:30;;;;;;;11.13;4.30;;;;;;;-144.07;100.00;58028.97;4826317;29;20136;-77
2022/06/07 01:49:58;;;;;;;6.07;3.70;;;;;;;-144.07;100.00;58028.97;4841393;29;20070;-77
2022/06/07 01:52:26;;;;;;;8.10;3.80;;;;;;;-144.07;100.00;58028.97;4841448;29;20117;-76
2022/06/07 01:54:57;;;;;;;7.47;3.05;;;;;;;-144.07;100.00;58028.97;4841919;29;20141;-78
2022/06/07 01:57:23;;;;;;;8.82;3.60;;;;;;;-144.07;100.00;58028.97;4841399;29;20052;-77
2022/06/07 01:59:52;;;;;;;5.10;3.38;;;;;;;-144.07;100.00;58028.97;4827038;29;20045;-75
2022/06/07 02:02:27;;;;;;;8.13;3.58;;;;;;;-144.07;100.00;58028.97;4841422;29;20046;-76
2022/06/07 02:04:54;;;;;;;7.82;3.88;;;;;;;-144.07;100.00;58028.97;4841508;29;20046;-76
2022/06/07 02:07:20;;;;;;;6.47;3.15;;;;;;;-144.07;100.00;58028.97;4841139;29;20128;-76
2022/06/07 02:09:52;;;;;;;5.20;3.08;;;;;;;-144.07;100.00;58028.97;4842080;29;20153;-76
2022/06/07 02:12:19;;;;;;;7.70;3.70;;;;;;;-144.07;100.00;58028.97;4841139;29;20061;-77
2022/06/07 02:14:44;;;;;;;5.65;3.15;;;;;;;-144.07;100.00;58028.97;4841773;29;20041;-77
2022/06/07 02:17:10;;;;;;;11.32;3.80;;;;;;;-144.07;100.00;58028.97;4842393;29;20041;-77
2022/06/07 02:19:49;;;;;;;6.50;3.80;;;;;;;-144.07;100.00;58028.97;4827588;29;20080;-77
2022/06/07 02:22:18;;;;;;;6.22;3.33;;;;;;;-144.07;100.00;58028.97;4840803;29;20073;-77
2022/06/07 02:24:44;;;;;;;7.72;3.47;;;;;;;-144.07;100.00;58028.97;4842451;29;20450;-78
2022/06/07 02:27:11;;;;;;;8.23;3.70;;;;;;;-144.07;100.00;58028.97;4840890;29;20046;-76
2022/06/07 02:29:42;;;;;;;10.63;3.97;;;;;;;-144.07;100.00;58028.97;4841999;29;20044;-76
2022/06/07 02:32:17;;;;;;;6.32;3.22;;;;;;;-144.07;100.00;58028.97;4854934;29;20046;-76
2022/06/07 02:34:45;;;;;;;7.68;3.63;;;;;;;-144.07;100.00;58028.97;4835085;29;20411;-77
2022/06/07 02:37:11;;;;;;;9.18;3.38;;;;;;;-144.07;100.00;58028.97;4840093;29;20505;-77
2022/06/07 02:39:37;;;;;;;9.85;3.97;;;;;;;-144.07;100.00;58028.97;4832972;29;20034;-76
2022/06/07 02:42:03;;;;;;;8.52;3.63;;;;;;;-144.07;100.00;58028.97;4837758;29;20041;-78
2022/06/07 02:44:29;;;;;;;9.38;3.83;;;;;;;-144.07;100.00;58028.97;4825911;29;20042;-77
2022/06/07 02:46:55;;;;;;;6.68;3.17;;;;;;;-144.07;100.00;58028.97;4841126;29;20430;-77
2022/06/07 02:49:21;;;;;;;7.90;3.45;;;;;;;-144.07;100.00;58028.97;4834745;29;20099;-77
2022/06/07 02:51:47;;;;;;;5.80;4.03;;;;;;;-144.07;100.00;58028.97;4835829;29;20034;-77
2022/06/07 02:54:13;;;;;;;8.70;3.83;;;;;;;-144.07;100.00;58028.97;4840992;29;20042;-78
2022/06/07 02:56:39;;;;;;;7.22;3.45;;;;;;;-144.07;100.00;58028.97;4830205;29;20041;-78
2022/06/07 02:59:06;;;;;;;9.13;4.13;;;;;;;-144.07;100.00;58028.97;4840604;29;20505;-77
2022/06/07 03:01:32;;;;;;;9.05;3.80;;;;;;;-144.07;100.00;58028.97;4840092;29;20034;-78
2022/06/07 03:04:00;;;;;;;10.48;4.45;;;;;;;-144.07;100.00;58028.97;4840281;29;20070;-77
2022/06/07 03:06:30;;;;;;;11.05;3.55;;;;;;;-144.07;100.00;58028.97;4840582;29;20379;-77
2022/06/07 03:08:56;;;;;;;8.63;3.42;;;;;;;-144.07;100.00;58028.97;4842036;29;20068;-76
2022/06/07 03:11:21;;;;;;;9.57;3.60;;;;;;;-144.07;100.00;58028.97;4825846;29;20038;-77
2022/06/07 03:13:49;;;;;;;7.30;3.60;;;;;;;-144.07;100.00;58028.97;4841012;29;20052;-78
2022/06/07 03:16:21;;;;;;;8.10;3.35;;;;;;;-144.07;100.00;58028.97;4814423;29;20045;-77
2022/06/07 03:18:49;;;;;;;5.57;3.35;;;;;;;-144.07;100.00;58028.97;4856255;29;20053;-76
2022/06/07 03:21:16;;;;;;;9.13;3.40;;;;;;;-144.07;100.00;58028.97;4825602;29;20037;-77
2022/06/07 03:23:44;;;;;;;7.55;3.22;;;;;;;-144.07;100.00;58028.97;4826188;29;20061;-77
2022/06/07 03:26:11;;;;;;;7.03;3.15;;;;;;;-144.07;100.00;58028.97;4840705;29;20034;-77
2022/06/07 03:28:48;;;;;;;7.63;3.42;;;;;;;-144.07;100.00;58028.97;4841967;29;20042;-77
2022/06/07 03:31:17;;;;;;;8.20;2.90;;;;;;;-144.07;100.00;58028.97;4840244;29;20132;-76
2022/06/07 03:33:45;;;;;;;6.82;3.47;;;;;;;-144.07;100.00;58028.97;4825880;29;20036;-79
2022/06/07 03:36:21;;;;;;;8.18;3.67;;;;;;;-144.07;100.00;58028.97;4825496;29;20052;-76
2022/06/07 03:38:47;;;;;;;7.97;3.75;;;;;;;-144.07;100.00;58028.97;4841609;29;20057;-77
2022/06/07 03:41:20;;;;;;;11.38;3.30;;;;;;;-144.07;100.00;58028.97;4840946;29;20445;-78
2022/06/07 03:43:47;;;;;;;8.88;4.15;;;;;;;-144.07;100.00;58028.97;4810876;29;20037;-77
2022/06/07 03:46:16;;;;;;;8.00;3.70;;;;;;;-144.07;100.00;58028.97;4824849;29;20041;-76
2022/06/07 03:48:44;;;;;;;7.72;3.08;;;;;;;-144.07;100.00;58028.97;4841738;29;20042;-76
2022/06/07 03:51:11;;;;;;;7.82;3.60;;;;;;;-144.07;100.00;58028.97;4826480;29;20049;-78
2022/06/07 03:53:38;;;;;;;8.63;3.95;;;;;;;-144.07;100.00;58028.97;4826484;29;20132;-77
2022/06/07 03:56:04;;;;;;;11.60;4.18;;;;;;;-144.07;100.00;58028.97;4826183;29;20128;-76
2022/06/07 03:58:38;;;;;;;9.65;3.97;;;;;;;-144.07;100.00;58028.97;4830821;29;20038;-78
2022/06/07 04:01:06;;;;;;;9.45;3.72;;;;;;;-144.07;100.00;58028.97;4855815;29;20072;-76
2022/06/07 04:03:31;;;;;;;7.65;4.40;;;;;;;-144.07;100.00;58028.97;4825651;29;20835;-76
2022/06/07 04:05:58;;;;;;;8.20;3.78;;;;;;;-144.07;100.00;58028.97;4825530;29;20129;-76
2022/06/07 04:08:27;;;;;;;8.05;3.97;;;;;;;-144.07;100.00;58028.97;4812015;29;20440;-77
2022/06/07 04:11:00;;;;;;;14.85;4.30;;;;;;;-144.07;100.00;58028.97;4841047;29;20038;-77
2022/06/07 04:13:45;;;;;;;10.70;4.22;;;;;;;-144.07;100.00;58028.97;4829187;29;20509;-76
2022/06/07 04:16:12;;;;;;;7.05;3.85;;;;;;;-144.07;100.00;58028.97;4828615;29;20048;-77
2022/06/07 04:18:45;;;;;;;8.43;3.40;;;;;;;-144.07;100.00;58028.97;4816027;29;20065;-76
2022/06/07 04:21:13;;;;;;;6.38;3.63;;;;;;;-144.07;100.00;58028.97;4814410;29;20065;-77
2022/06/07 04:23:39;;;;;;;5.10;3.20;;;;;;;-144.07;100.00;58028.97;4814208;29;20088;-78
2022/06/07 04:26:09;;;;;;;7.22;3.33;;;;;;;-144.07;100.00;58028.97;4828604;29;20041;-76
2022/06/07 04:28:38;;;;;;;7.63;3.70;;;;;;;-144.07;100.00;58028.97;4842742;29;20512;-75
2022/06/07 04:31:12;;;;;;;7.00;3.72;;;;;;;-144.07;100.00;58028.97;4828948;29;20038;-79
2022/06/07 04:33:38;;;;;;;6.15;2.88;;;;;;;-144.07;100.00;58028.97;4844391;29;20128;-76
2022/06/07 04:36:12;;;;;;;4.95;3.03;;;;;;;-144.07;100.00;58028.97;4844551;29;20034;-76
2022/06/07 04:38:40;;;;;;;7.25;3.42;;;;;;;-144.07;100.00;58028.97;4837732;29;20052;-77
2022/06/07 04:41:12;;;;;;;5.38;3.00;;;;;;;-144.07;100.00;58028.97;4812202;29;20035;-77
2022/06/07 04:43:41;;;;;;;6.35;3.00;;;;;;;-144.07;100.00;58028.97;4844632;29;20042;-77
2022/06/07 04:46:10;;;;;;;7.80;4.03;;;;;;;-144.07;100.00;58028.97;4828771;29;20113;-78
2022/06/07 04:48:37;;;;;;;9.85;3.35;;;;;;;-144.07;100.00;58028.97;4827460;29;20042;-77
2022/06/07 04:51:16;;;;;;;6.15;3.17;;;;;;;-144.07;100.00;58028.97;4819644;29;20413;-76
2022/06/07 04:53:50;;;;;;;7.35;3.00;;;;;;;-144.07;100.00;58028.97;4828877;29;20094;-76
2022/06/07 04:56:22;;;;;;;7.80;2.70;;;;;;;-144.07;100.00;58028.97;4818246;29;20574;-76
2022/06/07 04:58:48;;;;;;;10.27;2.63;;;;;;;-144.07;100.00;58028.97;4844747;29;20049;-77
2022/06/07 05:01:22;;;;;;;9.50;2.60;;;;;;;-144.07;100.00;58028.97;4818683;29;20393;-77
2022/06/07 05:03:49;;;;;;;7.90;2.58;;;;;;;-144.07;100.00;58028.97;4843685;29;20053;-80
2022/06/07 05:06:31;;;;;;;5.43;2.50;;;;;;;-144.07;100.00;58028.97;4826478;29;20125;-78
2022/06/07 05:09:13;;;;;;;5.88;3.13;;;;;;;-144.07;100.00;58028.97;4843779;29;20129;-78
2022/06/07 05:11:39;;;;;;;8.50;2.90;;;;;;;-144.07;100.00;58028.97;4814889;29;20141;-79
2022/06/07 05:14:05;;;;;;;5.63;2.95;;;;;;;-144.07;100.00;58028.97;4843574;29;20037;-77
2022/06/07 05:16:36;;;;;;;5.70;2.97;;;;;;;-144.07;100.00;58028.97;4828792;29;20046;-78
2022/06/07 05:19:02;;;;;;;8.23;3.45;;;;;;;-144.07;100.00;58028.97;4843693;29;20161;-77
2022/06/07 05:21:28;;;;;;;10.02;3.05;;;;;;;-144.07;100.00;58028.97;4828906;29;20083;-77
2022/06/07 05:23:55;;;;;;;5.10;2.90;;;;;;;-144.07;100.00;58028.97;4843181;29;20425;-77
2022/06/07 05:26:33;;;;;;;7.95;2.95;;;;;;;-144.07;100.00;58028.97;4842094;29;20125;-77
2022/06/07 05:29:01;;;;;;;5.97;2.60;;;;;;;-144.07;100.00;58028.97;4848574;29;20139;-78
2022/06/07 05:31:27;;;;;;;6.55;2.78;;;;;;;-144.07;100.00;58028.97;4844324;29;20109;-78
2022/06/07 05:33:53;;;;;;;6.40;2.95;;;;;;;-144.07;100.00;58028.97;4827981;29;20042;-77
2022/06/07 05:36:19;;;;;;;9.18;3.13;;;;;;;-144.07;100.00;58028.97;4836101;29;20059;-78
2022/06/07 05:38:49;;;;;;;8.40;2.78;;;;;;;-144.07;100.00;58028.97;4841608;29;20041;-78
2022/06/07 05:41:20;;;;;;;9.90;2.95;;;;;;;-144.07;100.00;58028.97;4826489;29;20042;-78
2022/06/07 05:43:48;;;;;;;11.50;6.18;;;;;;;-144.07;100.00;58028.97;4827884;29;20042;-79
2022/06/07 05:46:15;;;;;;;7.68;3.72;;;;;;;-144.07;100.00;58028.97;4829431;29;20121;-77
2022/06/07 05:48:48;;;;;;;6.28;2.80;;;;;;;-144.07;100.00;58028.97;4824022;29;20094;-79
2022/06/07 05:51:21;;;;;;;5.05;2.40;;;;;;;-144.07;100.00;58028.97;4822822;29;20066;-79
2022/06/07 05:53:52;;;;;;;7.78;2.22;;;;;;;-144.07;100.00;58028.97;4828831;29;20521;-79
2022/06/07 05:56:18;;;;;;;3.92;2.63;;;;;;;-144.07;100.00;58028.97;4828280;29;20513;-77
2022/06/07 05:58:47;;;;;;;9.27;2.63;;;;;;;-144.07;100.00;58028.97;4806078;29;20057;-78
2022/06/07 06:01:15;;;;;;;6.38;2.28;;;;;;;-144.07;100.00;58028.97;4843369;29;20418;-78
2022/06/07 06:03:44;;;;;;;3.83;2.40;;;;;;;-144.07;100.00;58028.97;4815180;29;20046;-78
2022/06/07 06:06:13;;;;;;;5.25;2.20;;;;;;;-144.07;100.00;58028.97;4843294;29;20038;-81
2022/06/07 06:11:32;;;;;;;7.90;3.47;;;;;;;-144.07;100.00;58028.97;4846887;29;20080;-78
2022/06/07 06:14:21;;;;;;;4.35;2.65;;;;;;;-144.07;100.00;58028.97;4838985;29;20057;-77
2022/06/07 06:16:52;;;;;;;15.27;8.45;;;;;;;-144.07;100.00;58028.97;4844000;29;20061;-78
2022/06/07 06:19:50;;;;;;;8.48;4.80;;;;;;;-144.07;100.00;58028.97;4835665;29;20054;-79
2022/06/07 06:22:19;;;;;;;9.68;4.80;;;;;;;-144.07;100.00;58028.97;4817029;29;20407;-78
2022/06/07 06:24:52;;;;;;;4.88;2.25;;;;;;;-144.07;100.00;58028.97;4819850;29;20136;-78
2022/06/07 06:27:18;;;;;;;5.95;2.50;;;;;;;-144.07;100.00;58028.97;4843633;29;20038;-79
2022/06/07 06:29:45;;;;;;;5.15;2.20;;;;;;;-144.07;100.00;58028.97;4858670;29;20128;-77
2022/06/07 06:32:12;;;;;;;4.60;2.40;;;;;;;-144.07;100.00;58028.97;4840050;29;20042;-76
2022/06/07 06:34:41;;;;;;;4.30;2.03;;;;;;;-144.07;100.00;58028.97;4829111;29;20022;-77
2022/06/07 06:37:10;;;;;;;4.88;1.92;;;;;;;-144.07;100.00;58028.97;4829410;29;20048;-80
2022/06/07 06:39:39;;;;;;;6.40;2.67;;;;;;;-144.07;100.00;58028.97;4834232;29;20094;-80
2022/06/07 06:42:05;;;;;;;5.97;2.17;;;;;;;-144.07;100.00;58028.97;4828920;29;20067;-79
2022/06/07 06:45:00;;;;;;;4.38;1.63;;;;;;;-144.07;100.00;58028.97;4833099;29;20042;-78
2022/06/07 06:47:26;;;;;;;4.68;1.60;;;;;;;-144.07;100.00;58028.97;4843444;29;20042;-79
2022/06/07 06:49:52;;;;;;;3.90;1.83;;;;;;;-144.07;100.00;58028.97;4833327;29;20042;-79
2022/06/07 06:52:20;;;;;;;2.78;1.38;;;;;;;-144.07;100.00;58028.97;4837667;29;20073;-77
2022/06/07 06:54:47;;;;;;;4.32;1.63;;;;;;;-144.07;100.00;58028.97;4813680;29;20025;-78
2022/06/07 06:57:23;;;;;;;2.55;1.40;;;;;;;-144.07;100.00;58028.97;4833895;29;20038;-79
2022/06/07 06:59:51;;;;;;;3.25;1.30;;;;;;;-144.07;100.00;58028.97;4842156;29;20049;-78
2022/06/07 07:02:19;;;;;;;3.25;1.77;;;;;;;-144.07;100.00;58028.97;4817711;29;20046;-79
2022/06/07 07:04:56;;;;;;;3.13;1.45;;;;;;;-144.07;100.00;58028.97;4823128;29;20417;-78
2022/06/07 07:07:23;;;;;;;2.90;1.15;;;;;;;-144.07;100.00;58028.97;4841940;29;20048;-78
2022/06/07 07:09:50;;;;;;;5.00;1.70;;;;;;;-144.07;100.00;58028.97;4842374;29;20029;-78
2022/06/07 07:12:16;;;;;;;4.15;1.25;;;;;;;-144.07;100.00;58028.97;4842372;29;20513;-79
2022/06/07 07:14:52;;;;;;;2.15;1.30;;;;;;;-144.07;100.00;58028.97;4842485;29;20065;-79
2022/06/07 07:17:22;;;;;;;4.47;1.40;;;;;;;-144.07;100.00;58028.97;4831667;29;20106;-79
2022/06/07 07:19:51;;;;;;;3.15;1.38;;;;;;;-144.07;100.00;58028.97;4815041;29;20072;-79
2022/06/07 07:22:19;;;;;;;3.17;1.17;;;;;;;-144.07;100.00;58028.97;4827336;29;20029;-77
2022/06/07 07:24:46;;;;;;;3.42;1.17;;;;;;;-144.07;100.00;58028.97;4808318;29;20058;-80
2022/06/07 07:27:15;;;;;;;4.65;1.50;;;;;;;-144.07;100.00;58028.97;4810825;29;20045;-79
2022/06/07 07:29:42;;;;;;;2.63;1.50;;;;;;;-144.07;100.00;58028.97;4846568;29;20114;-77
2022/06/07 07:32:13;;;;;;;4.03;1.27;;;;;;;-144.07;100.00;58028.97;4842344;29;20030;-80
2022/06/07 07:34:50;;;;;;;2.45;1.25;;;;;;;-144.07;100.00;58028.97;4822755;29;20053;-78
2022/06/07 07:37:17;;;;;;;1.55;1.00;;;;;;;-144.07;100.00;58028.97;4830676;29;20064;-79
2022/06/07 07:39:44;;;;;;;2.42;1.10;;;;;;;-144.07;100.00;58028.97;4842166;29;20038;-79
2022/06/07 07:42:16;;;;;;;3.70;1.20;;;;;;;-144.07;100.00;58028.97;4843212;29;20073;-81
2022/06/07 07:44:49;;;;;;;3.28;1.25;;;;;;;-144.07;100.00;58028.97;4841408;29;20045;-77
2022/06/07 07:47:16;;;;;;;2.17;1.23;;;;;;;-144.07;100.00;58028.97;4857889;29;20448;-80
2022/06/07 07:49:45;;;;;;;2.08;1.25;;;;;;;-144.07;100.00;58028.97;4819185;29;20498;-79
2022/06/07 07:52:18;;;;;;;3.25;1.20;;;;;;;-144.07;100.00;58028.97;4847112;29;20038;-81
2022/06/07 07:54:45;;;;;;;2.50;1.20;;;;;;;-144.07;100.00;58028.97;4848291;29;20042;-78
2022/06/07 07:57:11;;;;;;;5.63;1.30;;;;;;;-144.07;100.00;58028.97;4829763;29;20046;-79
2022/06/07 07:59:38;;;;;;;5.93;1.10;;;;;;;-144.07;100.00;58028.97;4843807;29;20042;-79
2022/06/07 08:02:06;;;;;;;3.05;1.20;;;;;;;-144.07;100.00;58028.97;4822818;29;20033;-79
2022/06/07 08:04:32;;;;;;;3.55;1.20;;;;;;;-144.07;100.00;58028.97;4827738;29;20054;-77
2022/06/07 08:06:58;;;;;;;2.78;1.08;;;;;;;-144.07;100.00;58028.97;4844611;29;20551;-78
2022/06/07 08:09:26;;;;;;;3.22;1.15;;;;;;;-144.07;100.00;58028.97;4839827;29;20076;-77
2022/06/07 08:11:52;;;;;;;4.85;1.15;;;;;;;-144.07;100.00;58028.97;4847837;29;20042;-80
2022/06/07 08:14:18;;;;;;;5.03;1.20;;;;;;;-144.07;100.00;58028.97;4859255;29;20106;-78
2022/06/07 08:16:44;;;;;;;4.20;1.30;;;;;;;-144.07;100.00;58028.97;4848953;29;20034;-79
2022/06/07 08:19:10;;;;;;;2.55;1.08;;;;;;;-144.07;100.00;58028.97;4835767;29;20066;-78
2022/06/07 08:21:36;;;;;;;2.80;1.50;;;;;;;-144.07;100.00;58028.97;4848142;29;20073;-78
2022/06/07 08:24:04;;;;;;;2.20;0.90;;;;;;;-144.07;100.00;58028.97;4820336;29;20054;-78
2022/06/07 08:26:32;;;;;;;2.13;1.05;;;;;;;-144.07;100.00;58028.97;4817479;29;20045;-80
2022/06/07 08:28:58;;;;;;;1.40;1.05;;;;;;;-144.07;100.00;58028.97;4831192;29;20049;-77
2022/06/07 08:31:25;;;;;;;4.15;0.93;;;;;;;-144.07;100.00;58028.97;4846440;29;20398;-76
2022/06/07 08:39:21;;;;;;;2.08;1.00;;;;;;;-144.07;100.00;58028.97;4851369;29;20064;-79
2022/06/07 08:41:51;;;;;;;3.42;0.90;;;;;;;-144.07;100.00;58028.97;4849362;29;20034;-77
2022/06/07 08:44:38;;;;;;;2.08;1.02;;;;;;;-144.07;100.00;58028.97;4841254;29;20056;-79
2022/06/07 08:47:23;;;;;;;4.18;0.90;;;;;;;-144.07;100.00;58028.97;4847598;29;20371;-80
2022/06/07 08:49:51;;;;;;;2.22;1.02;;;;;;;-144.07;100.00;58028.97;4834119;29;20038;-78
2022/06/07 08:52:22;;;;;;;5.55;1.10;;;;;;;-144.07;100.00;58028.97;4855187;29;20041;-77
2022/06/07 08:54:48;;;;;;;2.70;0.90;;;;;;;-144.07;100.00;58028.97;4831888;29;20078;-78
2022/06/07 08:57:18;;;;;;;2.38;0.80;;;;;;;-144.07;100.00;58028.97;4816865;29;20037;-80
2022/06/07 08:59:47;;;;;;;3.42;0.80;;;;;;;-144.07;100.00;58028.97;4831940;29;20044;-78
2022/06/07 09:02:23;;;;;;;1.48;0.90;;;;;;;-144.07;100.00;58028.97;4846459;29;20037;-79
2022/06/07 09:04:49;;;;;;;1.00;0.70;;;;;;;-144.07;100.00;58028.97;4848724;29;20506;-79
2022/06/07 09:07:16;;;;;;;2.38;0.90;;;;;;;-144.07;100.00;58028.97;4848133;29;20062;-79
2022/06/07 09:12:33;;;;;;;2.10;0.85;;;;;;;-144.07;100.00;58028.97;4844662;29;20085;-79
2022/06/07 09:14:59;;;;;;;1.30;0.63;;;;;;;-144.07;100.00;58028.97;4838449;29;20036;-79
2022/06/07 09:17:30;;;;;;;4.47;0.80;;;;;;;-144.07;100.00;58028.97;4859019;29;20477;-77
2022/06/07 09:19:56;;;;;;;3.47;1.10;;;;;;;-144.07;100.00;58028.97;4847718;29;20049;-78
2022/06/07 09:22:29;;;;;;;2.03;1.10;;;;;;;-144.07;100.00;58028.97;4816742;29;20041;-79
2022/06/07 09:25:23;;;;;;;2.55;0.90;;;;;;;-144.07;100.00;58028.97;4830277;29;20077;-79
2022/06/07 09:27:49;;;;;;;2.83;0.90;;;;;;;-144.07;100.00;58028.97;4832650;29;20518;-78
2022/06/07 09:30:38;;;;;;;1.60;0.95;;;;;;;-144.07;100.00;58028.97;4846530;29;20030;-78
2022/06/07 09:33:21;;;;;;;3.13;1.30;;;;;;;-144.07;100.00;58028.97;4823952;29;20042;-79
2022/06/07 09:35:47;;;;;;;2.38;1.00;;;;;;;-144.07;100.00;58028.97;4845920;29;20066;-79
2022/06/07 09:38:16;;;;;;;4.07;1.08;;;;;;;-144.07;100.00;58028.97;4845920;29;20065;-79
2022/06/07 09:40:54;;;;;;;2.97;0.90;;;;;;;-144.07;100.00;58028.97;4825871;29;20220;-78
2022/06/07 09:43:28;;;;;;;4.55;1.00;;;;;;;-144.07;100.00;58028.97;4811035;29;20050;-79
2022/06/07 09:45:56;;;;;;;2.45;1.00;;;;;;;-144.07;100.00;58028.97;4829630;29;20054;-78
2022/06/07 09:48:35;;;;;;;2.25;1.02;;;;;;;-144.07;100.00;58028.97;4805431;29;20038;-79
2022/06/07 09:51:13;;;;;;;25.35;5.72;;;;;;;-144.07;100.00;58028.97;4830917;29;20075;-78
2022/06/07 09:53:45;;;;;;;5.50;1.40;;;;;;;-144.07;100.00;58028.97;4817961;29;20046;-79
2022/06/07 09:56:56;;;;;;;6.13;1.10;;;;;;;-144.07;100.00;58028.97;4814932;29;20054;-80
2022/06/07 09:59:40;;;;;;;4.25;1.15;;;;;;;-144.07;100.00;58028.97;4812763;29;20650;-80
2022/06/07 10:02:25;;;;;;;5.82;2.05;;;;;;;-144.07;100.00;58028.97;4827530;29;20123;-79
2022/06/07 10:05:09;;;;;;;9.38;2.78;;;;;;;-144.07;100.00;58028.97;4841739;29;20065;-79
2022/06/07 10:07:39;;;;;;;7.60;2.70;;;;;;;-144.07;100.00;58028.97;4848292;29;20447;-81
2022/06/07 10:10:29;;;;;;;4.82;1.58;;;;;;;-144.07;100.00;58028.97;4846133;29;20042;-80
2022/06/07 10:13:05;;;;;;;5.63;1.75;;;;;;;-144.07;100.00;58028.97;4818741;29;20447;-81
2022/06/07 10:15:43;;;;;;;9.13;3.47;;;;;;;-144.07;100.00;58028.97;4831806;29;20129;-79
2022/06/07 10:18:38;;;;;;;10.68;2.53;;;;;;;-144.07;100.00;58028.97;4849732;29;20514;-79
2022/06/07 10:21:24;;;;;;;6.22;1.98;;;;;;;-144.07;100.00;58028.97;4831067;29;20038;-81
2022/06/07 10:24:08;;;;;;;4.22;1.35;;;;;;;-144.07;100.00;58028.97;4834251;29;20095;-79
2022/06/07 10:26:43;;;;;;;4.95;1.38;;;;;;;-144.07;100.00;58028.97;4856851;29;20036;-80
2022/06/07 10:29:26;;;;;;;6.82;1.52;;;;;;;-144.07;100.00;58028.97;4825299;29;20041;-79
2022/06/07 10:32:08;;;;;;;3.63;1.30;;;;;;;-144.07;100.00;58028.97;4830484;29;20210;-79
2022/06/07 10:34:34;;;;;;;2.85;1.20;;;;;;;-144.07;100.00;58028.97;4851432;29;20052;-80
2022/06/07 10:36:59;;;;;;;3.17;1.10;;;;;;;-144.07;100.00;58028.97;4862543;29;20030;-79
2022/06/07 10:39:30;;;;;;;3.63;1.35;;;;;;;-144.07;100.00;58028.97;4861823;29;20046;-81
2022/06/07 10:42:11;;;;;;;4.55;1.63;;;;;;;-144.07;100.00;58028.97;4820787;29;20398;-81
2022/06/07 10:44:44;;;;;;;2.78;1.30;;;;;;;-144.07;100.00;58028.97;4833447;29;20093;-79
2022/06/07 10:47:18;;;;;;;5.78;1.17;;;;;;;-144.07;100.00;58028.97;4831693;29;20042;-79
2022/06/07 10:49:44;;;;;;;7.07;1.20;;;;;;;-144.07;100.00;58028.97;4832273;29;20093;-81
2022/06/07 10:52:35;;;;;;;4.38;1.30;;;;;;;-144.07;100.00;58028.97;4847730;29;20038;-81
2022/06/07 10:55:35;;;;;;;7.32;1.33;;;;;;;-144.07;100.00;58028.97;4831590;29;20124;-79
2022/06/07 10:58:43;;;;;;;4.75;1.50;;;;;;;-144.07;100.00;58028.97;4846498;29;20109;-80
2022/06/07 11:01:35;;;;;;;15.30;2.08;;;;;;;-144.07;100.00;58028.97;4816721;29;20517;-78
2022/06/07 11:04:07;;;;;;;5.13;1.35;;;;;;;-144.07;100.00;58028.97;4843102;29;20053;-80
2022/06/07 11:09:41;;;;;;;5.45;1.10;;;;;;;-144.07;100.00;58028.97;4834127;29;20046;-80
2022/06/07 11:12:27;;;;;;;3.22;0.90;;;;;;;-144.07;100.00;58028.97;4846304;29;20041;-81
2022/06/07 11:14:58;;;;;;;;;;;;;;;-144.07;100.00;58028.97;4816989;29;20049;-80
2022/06/07 11:17:31;;;;;;;6.45;1.05;;;;;;;-144.07;100.00;58028.97;4844642;29;19967;-78
2022/06/07 11:20:02;;;;;;;3.38;1.27;;;;;;;-144.07;100.00;58028.97;4826914;29;20129;-79
2022/06/07 11:22:35;;;;;;;2.25;1.00;;;;;;;-144.07;100.00;58028.97;4839967;29;20045;-79
2022/06/07 11:25:30;;;;;;;3.00;1.10;;;;;;;-144.07;100.00;58028.97;4818810;29;20168;-80
2022/06/07 11:27:57;;;;;;;3.88;1.00;;;;;;;-144.07;100.00;58028.97;4836501;29;20451;-80
2022/06/07 11:30:36;;;;;;;3.13;1.13;;;;;;;-144.07;100.00;58028.97;4831778;29;20186;-79
2022/06/07 11:33:02;;;;;;;2.40;0.95;;;;;;;-144.07;100.00;58028.97;4850885;29;20061;-80
2022/06/07 11:35:52;;;;;;;2.95;0.90;;;;;;;-144.07;100.00;58028.97;4847351;29;20120;-83
2022/06/07 11:38:17;;;;;;;2.92;0.90;;;;;;;-144.07;100.00;58028.97;4837927;29;20053;-79
2022/06/07 11:40:44;;;;;;;2.42;0.98;;;;;;;-144.07;100.00;58028.97;4850949;29;20042;-79
2022/06/07 11:43:47;;;;;;;2.20;0.80;;;;;;;-144.07;100.00;58028.97;4819804;29;20046;-81
2022/06/07 11:46:51;;;;;;;2.60;0.90;;;;;;;-144.07;100.00;58028.97;4849850;29;20060;-79
2022/06/07 11:49:20;;;;;;;1.73;0.80;;;;;;;-144.07;100.00;58028.97;4849480;29;20054;-82